| time (UTC) | temp C | wind direction | speed KPH | gust KPH | rain 1hr cm | rain 24hr cm | rain mn cm | humidity % | barometer mb |
| 20260507023626 | 13 | 234 | 1.6 | 8.0 | 0.30 | 0.79 | 0.79 | 99 | 1006.6 |
| 20260507023124 | 14 | 206 | 0.0 | 8.0 | 0.05 | 0.74 | 0.74 | 99 | 1006.1 |
| 20260507022620 | 14 | 225 | 3.2 | 16.1 | 0.00 | 0.74 | 0.74 | 99 | 1005.9 |
| 20260507022115 | 14 | 220 | 3.2 | 14.5 | 0.00 | 0.74 | 0.74 | 99 | 1005.8 |
| 20260507021612 | 14 | 229 | 9.7 | 17.7 | 0.00 | 0.74 | 0.74 | 99 | 1006.1 |
| 20260507021108 | 14 | 325 | 1.6 | 19.3 | 0.00 | 0.74 | 0.74 | 99 | 1006.1 |
| 20260507020607 | 14 | 266 | 1.6 | 11.3 | 0.00 | 0.74 | 0.74 | 99 | 1006.0 |
| 20260507020103 | 14 | 228 | 9.7 | 14.5 | 0.00 | 0.74 | 0.74 | 99 | 1006.0 |
| 20260507015602 | 14 | 268 | 4.8 | 11.3 | 0.00 | 0.74 | 0.74 | 99 | 1006.2 |
| 20260507015058 | 14 | 220 | 6.4 | 11.3 | 0.00 | 0.74 | 0.74 | 99 | 1005.9 |
| 20260507014555 | 14 | 219 | 8.0 | 11.3 | 0.00 | 0.74 | 0.74 | 99 | 1005.9 |
| 20260507014045 | 14 | 181 | 17.7 | 20.9 | 0.00 | 0.74 | 0.74 | 99 | 1006.0 |
| 20260507013542 | 14 | 231 | 3.2 | 4.8 | 0.00 | 0.74 | 0.74 | 99 | 1005.9 |
| 20260507013039 | 13 | 237 | 3.2 | 9.7 | 0.00 | 0.74 | 0.74 | 99 | 1006.0 |
| 20260507012537 | 13 | 180 | 8.0 | 11.3 | 0.00 | 0.74 | 0.74 | 99 | 1006.0 |
| 20260507012032 | 13 | 215 | 6.4 | 14.5 | 0.00 | 0.74 | 0.74 | 99 | 1005.7 |
| 20260507011530 | 13 | 233 | 6.4 | 11.3 | 0.00 | 0.74 | 0.74 | 99 | 1005.8 |
| 20260507011025 | 13 | 205 | 6.4 | 8.0 | 0.00 | 0.74 | 0.74 | 99 | 1005.9 |
| 20260507010520 | 13 | 192 | 6.4 | 9.7 | 0.00 | 0.74 | 0.74 | 99 | 1005.9 |
| 20260507010017 | 13 | 185 | 11.3 | 12.9 | 0.00 | 0.74 | 0.74 | 99 | 1005.8 |
| 20260507005514 | 13 | 188 | 3.2 | 16.1 | 0.00 | 0.74 | 0.74 | 99 | 1005.8 |
| 20260507005010 | 13 | 199 | 4.8 | 11.3 | 0.00 | 0.74 | 0.74 | 99 | 1005.7 |
| 20260507004507 | 13 | 193 | 4.8 | 12.9 | 0.00 | 0.74 | 0.74 | 99 | 1005.8 |
| 20260507004005 | 13 | 151 | 6.4 | 16.1 | 0.00 | 0.74 | 0.74 | 99 | 1005.8 |
| 20260507003500 | 13 | 189 | 14.5 | 14.5 | 0.00 | 0.74 | 0.74 | 99 | 1006.0 |
| 20260507002955 | 13 | 211 | 9.7 | 9.7 | 0.00 | 0.74 | 0.74 | 99 | 1006.1 |
| 20260507002452 | 13 | 184 | 4.8 | 11.3 | 0.00 | 0.74 | 0.74 | 99 | 1005.9 |
| 20260507001949 | 13 | 178 | 11.3 | 12.9 | 0.00 | 0.74 | 0.74 | 99 | 1005.6 |
| 20260507001445 | 13 | 195 | 4.8 | 11.3 | 0.00 | 0.74 | 0.74 | 99 | 1006.0 |
| 20260507000943 | 13 | 198 | 4.8 | 8.0 | 0.00 | 0.74 | 0.74 | 99 | 1006.0 |
| 20260507000438 | 13 | 205 | 6.4 | 20.9 | 0.00 | 0.74 | 0.74 | 99 | 1005.9 |
| 20260506235934 | 13 | 210 | 6.4 | 12.9 | 0.00 | 0.74 | 0.74 | 99 | 1005.9 |
| 20260506235432 | 13 | 171 | 6.4 | 14.5 | 0.00 | 0.74 | 0.74 | 99 | 1005.8 |
| 20260506234927 | 13 | 160 | 6.4 | 12.9 | 0.00 | 0.74 | 0.74 | 99 | 1005.8 |
| 20260506234425 | 13 | 206 | 8.0 | 12.9 | 0.00 | 0.74 | 0.74 | 99 | 1005.7 |
| 20260506233923 | 13 | 221 | 4.8 | 6.4 | 0.00 | 0.74 | 0.74 | 99 | 1005.7 |
| 20260506233419 | 13 | 164 | 6.4 | 11.3 | 0.00 | 0.74 | 0.74 | 99 | 1005.9 |
| 20260506232915 | 13 | 184 | 8.0 | 12.9 | 0.00 | 0.74 | 0.74 | 99 | 1005.5 |
| 20260506232412 | 13 | 173 | 9.7 | 14.5 | 0.00 | 0.74 | 0.74 | 99 | 1005.6 |
| 20260506231908 | 13 | 199 | 4.8 | 12.9 | 0.00 | 0.74 | 0.74 | 99 | 1005.5 |
| 20260506231405 | 13 | 204 | 6.4 | 14.5 | 0.05 | 0.74 | 0.74 | 99 | 1005.4 |
| 20260506230903 | 13 | 206 | 4.8 | 16.1 | 0.05 | 0.74 | 0.74 | 99 | 1005.2 |
| 20260506230359 | 13 | 120 | 3.2 | 11.3 | 0.00 | 0.71 | 0.71 | 99 | 1005.4 |
| 20260506225855 | 13 | 194 | 6.4 | 11.3 | 0.00 | 0.71 | 0.71 | 99 | 1005.3 |
| 20260506225353 | 13 | 234 | 4.8 | 14.5 | 0.00 | 0.71 | 0.71 | 99 | 1005.6 |
| 20260506224850 | 13 | 180 | 3.2 | 8.0 | 0.00 | 0.71 | 0.71 | 99 | 1005.3 |
| 20260506224347 | 13 | 190 | 3.2 | 12.9 | 0.05 | 0.71 | 0.71 | 99 | 1005.3 |
| 20260506223843 | 13 | 213 | 9.7 | 9.7 | 0.05 | 0.71 | 0.71 | 99 | 1005.4 |
| 20260506223338 | 13 | 178 | 8.0 | 14.5 | 0.00 | 0.71 | 0.71 | 99 | 1005.5 |
| 20260506222836 | 13 | 167 | 19.3 | 24.1 | 0.05 | 0.71 | 0.71 | 99 | 1005.2 |
| 20260506222332 | 13 | 208 | 9.7 | 17.7 | 0.05 | 0.71 | 0.71 | 99 | 1005.3 |
| 20260506221830 | 13 | 218 | 3.2 | 11.3 | 0.05 | 0.71 | 0.71 | 99 | 1005.3 |
| 20260506221327 | 13 | 219 | 4.8 | 20.9 | 0.18 | 0.71 | 0.71 | 99 | 1005.3 |
| 20260506220825 | 13 | 224 | 9.7 | 20.9 | 0.18 | 0.69 | 0.69 | 99 | 1005.2 |
| 20260506220320 | 13 | 182 | 12.9 | 19.3 | 0.00 | 0.66 | 0.66 | 99 | 1005.6 |
| 20260506215817 | 13 | 200 | 20.9 | 25.7 | 0.00 | 0.66 | 0.66 | 99 | 1005.4 |
| 20260506215313 | 13 | 174 | 6.4 | 11.3 | 0.00 | 0.66 | 0.66 | 99 | 1005.4 |
| 20260506214809 | 13 | 196 | 9.7 | 12.9 | 0.05 | 0.66 | 0.66 | 99 | 1005.2 |
| 20260506214306 | 13 | 141 | 6.4 | 12.9 | 0.05 | 0.66 | 0.66 | 99 | 1005.5 |
| 20260506213804 | 13 | 158 | 8.0 | 20.9 | 0.00 | 0.66 | 0.66 | 99 | 1005.2 |
| 20260506213301 | 13 | 184 | 4.8 | 12.9 | 0.00 | 0.66 | 0.66 | 99 | 1005.5 |
| 20260506212758 | 13 | 164 | 1.6 | 14.5 | 0.05 | 0.66 | 0.66 | 99 | 1005.5 |
| 20260506212254 | 13 | 207 | 8.0 | 16.1 | 0.05 | 0.66 | 0.66 | 99 | 1005.5 |
| 20260506211749 | 13 | 196 | 3.2 | 8.0 | 0.05 | 0.64 | 0.64 | 99 | 1005.4 |
| 20260506211246 | 13 | 183 | 4.8 | 14.5 | 0.05 | 0.64 | 0.64 | 99 | 1005.5 |
| 20260506210743 | 13 | 124 | 4.8 | 16.1 | 0.18 | 0.64 | 0.64 | 99 | 1005.5 |
| 20260506210239 | 13 | 193 | 8.0 | 8.0 | 0.23 | 0.61 | 0.61 | 99 | 1005.6 |
| 20260506205736 | 13 | 217 | 4.8 | 14.5 | 0.23 | 0.61 | 0.61 | 99 | 1005.6 |
| 20260506205232 | 13 | 154 | 4.8 | 14.5 | 0.23 | 0.56 | 0.56 | 99 | 1005.8 |
| 20260506204729 | 13 | 199 | 6.4 | 9.7 | 0.48 | 0.56 | 0.56 | 99 | 1005.7 |
| 20260506204227 | 13 | 148 | 4.8 | 17.7 | 0.53 | 0.51 | 0.51 | 99 | 1005.9 |
| 20260506203724 | 13 | 187 | 6.4 | 8.0 | 0.43 | 0.48 | 0.48 | 99 | 1005.9 |
| 20260506203221 | 13 | 199 | 8.0 | 12.9 | 0.05 | 0.43 | 0.43 | 99 | 1005.9 |
| 20260506202719 | 13 | 215 | 6.4 | 19.3 | 0.00 | 0.41 | 0.41 | 99 | 1005.9 |
| 20260506202215 | 13 | 184 | 8.0 | 11.3 | 0.00 | 0.41 | 0.41 | 99 | 1005.8 |
| 20260506201712 | 13 | 204 | 9.7 | 19.3 | 0.05 | 0.41 | 0.41 | 99 | 1005.9 |
| 20260506201208 | 13 | 191 | 8.0 | 19.3 | 0.13 | 0.41 | 0.41 | 99 | 1005.9 |
| 20260506200700 | 13 | 133 | 6.4 | 17.7 | 0.13 | 0.41 | 0.41 | 99 | 1006.1 |
| 20260506200156 | 13 | 187 | 8.0 | 25.7 | 0.05 | 0.38 | 0.38 | 99 | 1005.8 |
| 20260506195652 | 13 | 192 | 6.4 | 17.7 | 0.00 | 0.38 | 0.38 | 99 | 1006.0 |
| 20260506195148 | 13 | 217 | 6.4 | 12.9 | 0.13 | 0.38 | 0.38 | 99 | 1006.2 |
| 20260506194641 | 13 | 198 | 8.0 | 19.3 | 0.05 | 0.38 | 0.38 | 99 | 1006.0 |
| 20260506194137 | 13 | 181 | 14.5 | 16.1 | 0.00 | 0.36 | 0.36 | 99 | 1006.2 |
| 20260506193635 | 13 | 42 | 3.2 | 14.5 | 0.00 | 0.36 | 0.36 | 99 | 1006.1 |
| 20260506193132 | 13 | 219 | 4.8 | 24.1 | 0.00 | 0.36 | 0.36 | 99 | 1006.5 |
| 20260506192629 | 13 | 174 | 8.0 | 19.3 | 0.00 | 0.36 | 0.36 | 99 | 1006.7 |
| 20260506192125 | 13 | 202 | 4.8 | 27.4 | 0.00 | 0.36 | 0.36 | 99 | 1006.3 |
| 20260506191621 | 13 | 209 | 4.8 | 14.5 | 0.00 | 0.36 | 0.36 | 99 | 1006.8 |
| 20260506191117 | 13 | 152 | 6.4 | 24.1 | 0.05 | 0.36 | 0.36 | 99 | 1006.7 |
| 20260506190615 | 13 | 285 | 4.8 | 17.7 | 0.13 | 0.36 | 0.36 | 99 | 1006.5 |
| 20260506190112 | 13 | 172 | 8.0 | 20.9 | 0.05 | 0.33 | 0.33 | 99 | 1006.6 |
| 20260506185609 | 13 | 166 | 20.9 | 24.1 | 0.05 | 0.33 | 0.33 | 99 | 1006.8 |
| 20260506185105 | 13 | 196 | 9.7 | 12.9 | 0.05 | 0.33 | 0.33 | 99 | 1006.9 |
| 20260506184603 | 13 | 149 | 8.0 | 14.5 | 0.18 | 0.33 | 0.33 | 99 | 1007.0 |
| 20260506184100 | 13 | 153 | 9.7 | 12.9 | 0.13 | 0.33 | 0.33 | 99 | 1007.1 |
| 20260506183556 | 13 | 194 | 12.9 | 17.7 | 0.05 | 0.30 | 0.30 | 98 | 1006.8 |
| 20260506183052 | 13 | 121 | 4.8 | 17.7 | 0.05 | 0.28 | 0.28 | 98 | 1006.7 |
| 20260506182550 | 13 | 173 | 8.0 | 12.9 | 0.18 | 0.28 | 0.28 | 98 | 1006.7 |
| 20260506182047 | 13 | 162 | 8.0 | 11.3 | 0.18 | 0.28 | 0.28 | 98 | 1006.7 |
| 20260506181545 | 13 | 136 | 4.8 | 17.7 | 0.18 | 0.25 | 0.25 | 97 | 1006.9 |
| 20260506181041 | 13 | 129 | 8.0 | 16.1 | 0.23 | 0.23 | 0.23 | 97 | 1007.0 |
| 20260506180538 | 13 | 139 | 12.9 | 17.7 | 0.30 | 0.23 | 0.23 | 97 | 1007.2 |
| 20260506180035 | 14 | 119 | 6.4 | 29.0 | 0.43 | 0.20 | 0.20 | 96 | 1007.1 |
| 20260506175531 | 14 | 104 | 3.2 | 12.9 | 0.43 | 0.15 | 0.15 | 96 | 1007.4 |
| 20260506175028 | 15 | 162 | 3.2 | 20.9 | 0.30 | 0.10 | 0.10 | 95 | 1007.4 |
| 20260506174527 | 15 | 153 | 3.2 | 12.9 | 0.18 | 0.08 | 0.08 | 94 | 1007.5 |
| 20260506174022 | 15 | 196 | 6.4 | 14.5 | 0.13 | 0.05 | 0.05 | 94 | 1007.6 |
| 20260506173520 | 15 | 162 | 4.8 | 14.5 | 0.13 | 0.05 | 0.05 | 93 | 1008.0 |
| 20260506173017 | 15 | 183 | 4.8 | 12.9 | 0.13 | 0.05 | 0.05 | 92 | 1007.9 |
| 20260506172514 | 15 | 188 | 11.3 | 16.1 | 0.13 | 0.03 | 0.03 | 91 | 1007.9 |
| 20260506172010 | 15 | 183 | 9.7 | 24.1 | 0.13 | 0.03 | 0.03 | 90 | 1007.8 |
| 20260506171508 | 16 | 228 | 24.1 | 24.1 | 0.05 | 0.00 | 0.00 | 87 | 1008.1 |
| 20260506171005 | 16 | 180 | 6.4 | 16.1 | 0.00 | 0.00 | 0.00 | 86 | 1008.1 |
| 20260506170501 | 16 | 216 | 8.0 | 20.9 | 0.00 | 0.00 | 0.00 | 84 | 1008.2 |
| 20260506165954 | 17 | 200 | 11.3 | 19.3 | 0.00 | 0.00 | 0.00 | 82 | 1008.1 |
| 20260506165452 | 17 | 177 | 11.3 | 30.6 | 0.00 | 0.00 | 0.00 | 80 | 1008.2 |
| 20260506164948 | 17 | 204 | 9.7 | 16.1 | 0.00 | 0.00 | 0.00 | 79 | 1007.8 |
| 20260506164445 | 18 | 207 | 11.3 | 25.7 | 0.00 | 0.00 | 0.00 | 77 | 1008.0 |
| 20260506163943 | 18 | 205 | 14.5 | 29.0 | 0.00 | 0.00 | 0.00 | 76 | 1007.9 |
| 20260506163438 | 18 | 219 | 6.4 | 32.2 | 0.00 | 0.00 | 0.00 | 76 | 1008.0 |
| 20260506162932 | 18 | 166 | 11.3 | 22.5 | 0.00 | 0.00 | 0.00 | 76 | 1007.6 |
| 20260506162430 | 18 | 216 | 4.8 | 16.1 | 0.00 | 0.00 | 0.00 | 76 | 1007.8 |
| 20260506161922 | 18 | 176 | 11.3 | 24.1 | 0.00 | 0.00 | 0.00 | 76 | 1007.9 |
| 20260506161420 | 18 | 176 | 14.5 | 20.9 | 0.00 | 0.00 | 0.00 | 75 | 1008.0 |
| 20260506160917 | 18 | 196 | 11.3 | 20.9 | 0.00 | 0.00 | 0.00 | 74 | 1008.2 |
| 20260506160414 | 18 | 246 | 11.3 | 24.1 | 0.00 | 0.00 | 0.00 | 74 | 1008.2 |
| 20260506155912 | 18 | 131 | 8.0 | 17.7 | 0.00 | 0.00 | 0.00 | 74 | 1008.3 |
| 20260506155409 | 18 | 262 | 12.9 | 33.8 | 0.00 | 0.00 | 0.00 | 74 | 1008.3 |
| 20260506153531 | 19 | 193 | 9.7 | 14.5 | 0.00 | 0.00 | 0.00 | 72 | 1008.2 |
| 20260506153028 | 19 | 224 | 11.3 | 27.4 | 0.00 | 0.00 | 0.00 | 73 | 1008.1 |
| 20260506152525 | 19 | 182 | 29.0 | 38.6 | 0.00 | 0.00 | 0.00 | 71 | 1008.2 |
| 20260506152023 | 19 | 226 | 9.7 | 25.7 | 0.00 | 0.00 | 0.00 | 73 | 1008.2 |
| 20260506151521 | 19 | 225 | 11.3 | 17.7 | 0.00 | 0.00 | 0.00 | 72 | 1008.3 |
| 20260506151018 | 19 | 190 | 4.8 | 32.2 | 0.00 | 0.00 | 0.00 | 73 | 1008.4 |
| 20260506150514 | 20 | 210 | 14.5 | 19.3 | 0.00 | 0.00 | 0.00 | 71 | 1008.3 |
| 20260506150011 | 20 | 155 | 14.5 | 17.7 | 0.00 | 0.00 | 0.00 | 71 | 1008.3 |
| 20260506145507 | 20 | 212 | 8.0 | 14.5 | 0.00 | 0.00 | 0.00 | 72 | 1008.6 |
| 20260506145005 | 19 | 212 | 16.1 | 24.1 | 0.00 | 0.00 | 0.00 | 72 | 1008.7 |
| 20260506144502 | 20 | 201 | 16.1 | 32.2 | 0.00 | 0.00 | 0.00 | 70 | 1008.5 |
| 20260506143959 | 20 | 218 | 9.7 | 22.5 | 0.00 | 0.00 | 0.00 | 71 | 1008.4 |
| 20260506143456 | 20 | 262 | 9.7 | 19.3 | 0.00 | 0.00 | 0.00 | 71 | 1008.5 |
| 20260506142955 | 20 | 214 | 16.1 | 17.7 | 0.00 | 0.00 | 0.00 | 72 | 1008.6 |
| 20260506142452 | 19 | 211 | 11.3 | 25.7 | 0.00 | 0.00 | 0.00 | 73 | 1008.6 |
| 20260506141950 | 19 | 248 | 14.5 | 20.9 | 0.00 | 0.00 | 0.00 | 74 | 1008.7 |
| 20260506141448 | 18 | 105 | 3.2 | 22.5 | 0.00 | 0.00 | 0.00 | 76 | 1008.8 |
| 20260506140946 | 18 | 245 | 3.2 | 20.9 | 0.00 | 0.00 | 0.00 | 77 | 1008.8 |
| 20260506140443 | 18 | 231 | 4.8 | 17.7 | 0.00 | 0.00 | 0.00 | 77 | 1008.7 |
| 20260506135939 | 17 | 191 | 11.3 | 20.9 | 0.00 | 0.00 | 0.00 | 78 | 1008.7 |
| 20260506135437 | 17 | 200 | 8.0 | 24.1 | 0.00 | 0.00 | 0.00 | 79 | 1008.7 |
| 20260506134933 | 17 | 234 | 6.4 | 17.7 | 0.00 | 0.00 | 0.00 | 79 | 1008.3 |
| 20260506134429 | 17 | 225 | 11.3 | 20.9 | 0.00 | 0.00 | 0.00 | 79 | 1008.4 |
| 20260506133926 | 17 | 136 | 8.0 | 20.9 | 0.00 | 0.00 | 0.00 | 80 | 1008.4 |
| 20260506133423 | 17 | 214 | 6.4 | 17.7 | 0.00 | 0.00 | 0.00 | 80 | 1008.4 |
| 20260506132920 | 17 | 282 | 3.2 | 24.1 | 0.00 | 0.00 | 0.00 | 81 | 1008.6 |
| 20260506132417 | 17 | 191 | 14.5 | 25.7 | 0.00 | 0.00 | 0.00 | 81 | 1008.4 |
| 20260506131914 | 17 | 210 | 8.0 | 30.6 | 0.00 | 0.00 | 0.00 | 82 | 1008.2 |
| 20260506131411 | 16 | 232 | 8.0 | 11.3 | 0.00 | 0.00 | 0.00 | 83 | 1008.7 |
| 20260506130908 | 16 | 223 | 9.7 | 32.2 | 0.00 | 0.00 | 0.00 | 84 | 1008.6 |
| 20260506130404 | 16 | 191 | 6.4 | 24.1 | 0.00 | 0.00 | 0.00 | 85 | 1008.9 |
| 20260506125902 | 16 | 212 | 8.0 | 20.9 | 0.00 | 0.00 | 0.00 | 85 | 1009.0 |
| 20260506125400 | 16 | 155 | 8.0 | 22.5 | 0.00 | 0.00 | 0.00 | 86 | 1009.3 |
| 20260506124858 | 16 | 223 | 14.5 | 25.7 | 0.00 | 0.00 | 0.00 | 86 | 1009.0 |
| 20260506124355 | 15 | 219 | 8.0 | 22.5 | 0.00 | 0.00 | 0.00 | 87 | 1009.2 |
| 20260506123853 | 15 | 183 | 6.4 | 16.1 | 0.00 | 0.00 | 0.00 | 87 | 1009.2 |
| 20260506123351 | 15 | 201 | 4.8 | 12.9 | 0.00 | 0.00 | 0.00 | 88 | 1009.3 |
| 20260506122848 | 15 | 174 | 11.3 | 14.5 | 0.00 | 0.00 | 0.00 | 88 | 1009.4 |
| 20260506122344 | 15 | 210 | 6.4 | 14.5 | 0.00 | 0.00 | 0.00 | 89 | 1009.2 |
| 20260506121843 | 15 | 141 | 6.4 | 14.5 | 0.00 | 0.00 | 0.00 | 89 | 1009.3 |
| 20260506121340 | 15 | 166 | 6.4 | 9.7 | 0.00 | 0.00 | 0.00 | 89 | 1009.3 |
| 20260506120837 | 15 | 153 | 8.0 | 17.7 | 0.00 | 0.00 | 0.00 | 90 | 1009.4 |
| 20260506120334 | 15 | 147 | 8.0 | 17.7 | 0.00 | 0.00 | 0.00 | 90 | 1009.2 |
| 20260506115832 | 15 | 247 | 4.8 | 9.7 | 0.00 | 0.00 | 0.00 | 90 | 1009.2 |
| 20260506115330 | 15 | 173 | 8.0 | 12.9 | 0.00 | 0.00 | 0.00 | 90 | 1009.3 |
| 20260506114828 | 15 | 124 | 12.9 | 14.5 | 0.00 | 0.00 | 0.00 | 90 | 1009.2 |
| 20260506114325 | 15 | 193 | 11.3 | 16.1 | 0.00 | 0.00 | 0.00 | 91 | 1009.1 |
| 20260506113823 | 15 | 181 | 3.2 | 14.5 | 0.00 | 0.00 | 0.00 | 91 | 1009.0 |
| 20260506113321 | 14 | 183 | 8.0 | 20.9 | 0.00 | 0.00 | 0.00 | 91 | 1008.8 |
| 20260506112817 | 14 | 215 | 16.1 | 24.1 | 0.00 | 0.00 | 0.00 | 91 | 1009.1 |
| 20260506112315 | 14 | 187 | 4.8 | 14.5 | 0.00 | 0.00 | 0.00 | 92 | 1009.4 |
| 20260506111812 | 14 | 168 | 1.6 | 19.3 | 0.00 | 0.00 | 0.00 | 92 | 1009.3 |
| 20260506111310 | 13 | 170 | 8.0 | 17.7 | 0.00 | 0.00 | 0.00 | 93 | 1009.4 |
| 20260506110807 | 13 | 192 | 8.0 | 17.7 | 0.00 | 0.00 | 0.00 | 93 | 1009.3 |
| 20260506110304 | 13 | 154 | 3.2 | 12.9 | 0.00 | 0.00 | 0.00 | 94 | 1009.6 |
| 20260506105800 | 13 | 107 | 4.8 | 16.1 | 0.00 | 0.00 | 0.00 | 94 | 1009.3 |
| 20260506105257 | 13 | 113 | 4.8 | 14.5 | 0.00 | 0.00 | 0.00 | 94 | 1009.4 |
| 20260506104755 | 13 | 187 | 8.0 | 14.5 | 0.00 | 0.00 | 0.00 | 94 | 1009.3 |
| 20260506104253 | 13 | 217 | 4.8 | 17.7 | 0.00 | 0.00 | 0.00 | 94 | 1009.3 |
| 20260506103750 | 13 | 147 | 4.8 | 22.5 | 0.00 | 0.00 | 0.00 | 94 | 1009.2 |
| 20260506103247 | 13 | 169 | 12.9 | 17.7 | 0.00 | 0.00 | 0.00 | 94 | 1009.2 |
| 20260506102744 | 13 | 202 | 6.4 | 14.5 | 0.00 | 0.00 | 0.00 | 94 | 1009.1 |
| 20260506102242 | 13 | 155 | 8.0 | 16.1 | 0.00 | 0.00 | 0.00 | 94 | 1009.4 |
| 20260506101739 | 13 | 216 | 3.2 | 20.9 | 0.00 | 0.00 | 0.00 | 94 | 1009.4 |
| 20260506101235 | 13 | 217 | 4.8 | 9.7 | 0.00 | 0.00 | 0.00 | 94 | 1009.1 |
| 20260506100734 | 13 | 199 | 6.4 | 12.9 | 0.00 | 0.00 | 0.00 | 94 | 1009.1 |
| 20260506100231 | 13 | 101 | 8.0 | 9.7 | 0.00 | 0.00 | 0.00 | 94 | 1009.2 |
| 20260506095730 | 13 | 141 | 6.4 | 16.1 | 0.00 | 0.00 | 0.00 | 94 | 1009.2 |
| 20260506095226 | 13 | 131 | 3.2 | 9.7 | 0.00 | 0.00 | 0.00 | 94 | 1009.0 |
| 20260506094723 | 13 | 144 | 8.0 | 8.0 | 0.00 | 0.00 | 0.00 | 93 | 1009.1 |
| 20260506094221 | 13 | 183 | 3.2 | 17.7 | 0.00 | 0.00 | 0.00 | 93 | 1009.3 |
| 20260506093720 | 13 | 167 | 8.0 | 17.7 | 0.00 | 0.00 | 0.00 | 93 | 1009.1 |
| 20260506093216 | 13 | 176 | 6.4 | 12.9 | 0.00 | 0.00 | 0.00 | 93 | 1009.2 |
| 20260506092714 | 13 | 196 | 11.3 | 11.3 | 0.00 | 0.00 | 0.00 | 93 | 1009.1 |
| 20260506092212 | 13 | 178 | 12.9 | 12.9 | 0.00 | 0.00 | 0.00 | 93 | 1009.0 |
| 20260506091709 | 13 | 170 | 4.8 | 12.9 | 0.00 | 0.00 | 0.00 | 93 | 1009.2 |
| 20260506091206 | 13 | 216 | 4.8 | 14.5 | 0.00 | 0.00 | 0.00 | 93 | 1009.2 |
| 20260506090704 | 13 | 180 | 9.7 | 11.3 | 0.00 | 0.00 | 0.00 | 93 | 1009.0 |
| 20260506090201 | 13 | 186 | 8.0 | 14.5 | 0.00 | 0.00 | 0.00 | 92 | 1009.1 |
| 20260506085658 | 13 | 142 | 6.4 | 14.5 | 0.00 | 0.00 | 0.00 | 92 | 1009.3 |
| 20260506085153 | 13 | 122 | 4.8 | 9.7 | 0.00 | 0.00 | 0.00 | 92 | 1009.3 |
| 20260506084650 | 13 | 203 | 6.4 | 11.3 | 0.00 | 0.00 | 0.00 | 92 | 1009.3 |
| 20260506084147 | 13 | 201 | 6.4 | 17.7 | 0.00 | 0.00 | 0.00 | 92 | 1009.5 |
| 20260506083644 | 13 | 185 | 3.2 | 14.5 | 0.00 | 0.00 | 0.00 | 92 | 1009.1 |
| 20260506083142 | 13 | 212 | 16.1 | 22.5 | 0.00 | 0.00 | 0.00 | 92 | 1009.3 |
| 20260506082638 | 13 | 188 | 9.7 | 14.5 | 0.00 | 0.00 | 0.00 | 92 | 1009.3 |
| 20260506082134 | 13 | 206 | 3.2 | 4.8 | 0.00 | 0.00 | 0.00 | 92 | 1009.3 |
| 20260506081632 | 13 | 104 | 4.8 | 9.7 | 0.00 | 0.00 | 0.00 | 91 | 1009.0 |
| 20260506081130 | 13 | 77 | 3.2 | 6.4 | 0.00 | 0.00 | 0.00 | 91 | 1009.3 |
| 20260506080627 | 13 | 317 | 1.6 | 6.4 | 0.00 | 0.00 | 0.00 | 91 | 1009.4 |
| 20260506080123 | 13 | 132 | 6.4 | 11.3 | 0.00 | 0.00 | 0.00 | 91 | 1009.4 |
| 20260506073107 | 13 | 206 | 6.4 | 11.3 | 0.00 | 0.00 | 0.00 | 89 | 1009.3 |
| 20260506072604 | 13 | 202 | 8.0 | 22.5 | 0.00 | 0.00 | 0.00 | 89 | 1009.5 |
| 20260506072102 | 13 | 202 | 11.3 | 16.1 | 0.00 | 0.00 | 0.00 | 89 | 1009.2 |
| 20260506071559 | 13 | 191 | 16.1 | 17.7 | 0.00 | 0.00 | 0.00 | 89 | 1009.5 |
| 20260506071057 | 13 | 215 | 4.8 | 12.9 | 0.00 | 0.00 | 0.00 | 88 | 1009.3 |
| 20260506070554 | 13 | 180 | 11.3 | 17.7 | 0.00 | 0.00 | 0.00 | 88 | 1009.5 |
| 20260506062028 | 14 | 180 | 11.3 | 17.7 | 0.00 | 0.00 | 0.00 | 86 | 1009.2 |
| 20260506061523 | 14 | 190 | 4.8 | 16.1 | 0.00 | 0.00 | 0.00 | 86 | 1009.3 |
| 20260506061021 | 14 | 108 | 3.2 | 17.7 | 0.00 | 0.00 | 0.00 | 85 | 1009.5 |
| 20260506060520 | 14 | 194 | 9.7 | 14.5 | 0.00 | 0.00 | 0.00 | 85 | 1009.3 |
| 20260506050948 | 15 | 231 | 4.8 | 19.3 | 0.00 | 0.00 | 0.00 | 82 | 1009.6 |
| 20260506050446 | 15 | 236 | 9.7 | 25.7 | 0.00 | 0.00 | 0.00 | 81 | 1009.5 |
| 20260506044936 | 16 | 264 | 9.7 | 20.9 | 0.00 | 0.00 | 0.00 | 80 | 1009.7 |
| 20260506044435 | 16 | 228 | 8.0 | 17.7 | 0.00 | 0.00 | 0.00 | 80 | 1009.8 |
| 20260506043931 | 16 | 237 | 9.7 | 12.9 | 0.00 | 0.00 | 0.00 | 79 | 1009.7 |
| 20260506043429 | 16 | 238 | 11.3 | 25.7 | 0.00 | 0.00 | 0.00 | 79 | 1009.8 |
| 20260506042926 | 16 | 176 | 14.5 | 25.7 | 0.00 | 0.00 | 0.00 | 78 | 1009.7 |
| 20260506042426 | 16 | 205 | 6.4 | 14.5 | 0.00 | 0.00 | 0.00 | 78 | 1009.7 |
| 20260506041923 | 16 | 189 | 9.7 | 29.0 | 0.00 | 0.00 | 0.00 | 77 | 1009.8 |
| 20260506041421 | 16 | 223 | 9.7 | 27.4 | 0.00 | 0.00 | 0.00 | 77 | 1009.8 |
| 20260506040918 | 16 | 189 | 17.7 | 35.4 | 0.00 | 0.00 | 0.00 | 76 | 1009.7 |
| 20260506040415 | 16 | 220 | 8.0 | 32.2 | 0.00 | 0.00 | 0.00 | 76 | 1009.6 |
| 20260506035911 | 16 | 190 | 8.0 | 24.1 | 0.00 | 0.00 | 0.00 | 75 | 1009.8 |
| 20260506035409 | 16 | 197 | 8.0 | 22.5 | 0.00 | 0.00 | 0.00 | 75 | 1009.8 |
| 20260506034905 | 16 | 235 | 17.7 | 22.5 | 0.00 | 0.00 | 0.00 | 75 | 1009.9 |
| 20260506034403 | 16 | 245 | 8.0 | 29.0 | 0.00 | 0.00 | 0.00 | 74 | 1009.8 |
| 20260506033859 | 16 | 178 | 6.4 | 19.3 | 0.00 | 0.00 | 0.00 | 74 | 1009.6 |
| 20260506033357 | 16 | 221 | 4.8 | 24.1 | 0.00 | 0.00 | 0.00 | 74 | 1009.8 |
| 20260506032854 | 16 | 215 | 16.1 | 20.9 | 0.00 | 0.00 | 0.00 | 74 | 1009.9 |
| 20260506032350 | 16 | 151 | 6.4 | 24.1 | 0.00 | 0.00 | 0.00 | 73 | 1009.6 |
| 20260506031847 | 16 | 261 | 9.7 | 25.7 | 0.00 | 0.00 | 0.00 | 73 | 1009.6 |
| 20260506031345 | 16 | 195 | 25.7 | 25.7 | 0.00 | 0.00 | 0.00 | 73 | 1009.5 |
| 20260506030842 | 16 | 220 | 8.0 | 17.7 | 0.00 | 0.00 | 0.00 | 73 | 1009.7 |
| 20260506030340 | 16 | 217 | 8.0 | 20.9 | 0.00 | 0.00 | 0.00 | 73 | 1009.8 |
| 20260506025837 | 16 | 200 | 14.5 | 19.3 | 0.00 | 0.00 | 0.00 | 73 | 1009.6 |
| 20260506025333 | 16 | 188 | 9.7 | 27.4 | 0.00 | 0.00 | 0.00 | 73 | 1009.6 |
| 20260506024830 | 16 | 242 | 6.4 | 24.1 | 0.00 | 0.00 | 0.00 | 73 | 1009.7 |
| 20260506024327 | 16 | 207 | 6.4 | 17.7 | 0.00 | 0.00 | 0.00 | 73 | 1009.4 |
| 20260506023823 | 16 | 196 | 8.0 | 16.1 | 0.00 | 0.00 | 0.00 | 73 | 1009.5 |